Terminal Aerodrome Forecast
Issued by NWS

Home | Current Version | Previous Version | Text Only | Print | Product List | Glossary On
Versions: 1 2 3 4 5 6 7 8 9 10 11 12 13 14
000
FTUS45 KTFX 280500
TAFCTB
TAF
KCTB 280534Z 2806/2906 24018KT P6SM BKN150
     FM280900 29012KT P6SM SCT150
     FM281400 33010KT P6SM SCT060=

USA.gov is the U.S. government's official web portal to all federal, state and local government web resources and services.